Historyczne dane pomiarowe

Dodano dane terminowe – wersja testowa.

Dane z okresu 1951-2019

Wersja bazy: 1.34 [2019-03-16, lista zmian], aktualizacja planowana na 2019-04-15

Dane meteo z obszaru Polski uzyskane na podstawie danych udostępnionych przez Instytut Meteorologii i Gospodarki Wodnej – Państwowy Instytut Badawczy.

 

Wybierz Datę:    

       

TemperaturaWilgotnośćWiatrCiśnienieOpadyŚniegCzas trwania zjawisk
 Stacja t tx tn tng RH VA  wxwx mslp ppp RRR   cm mm wxwxwxwxwxwxwx
1979-02-15 -1.1 0.1 -4.4- 95.0- 8.0 7.3---- 0.0-- 11---------
1979-02-14 -2.0 0.1 -4.2- 99.3- 7.3 4.7---- 0.0-- 11---------
1979-02-13 -1.5 0.1 -5.9- 99.8- 7.3 8.0---- 0.0-- 11---------
1979-02-12 -4.4 -2.6 -8.1- 90.3- 7.0 10.7---- 0.9-- 8---------
1979-02-11 -6.0 -2.0-11.4- 80.5- 2.0 2.0---- 0.0-- 8---------
1979-02-10 -2.9 -0.9 -5.9- 81.8- 7.3 3.7---- 0.0-- 8---------
1979-02-09 -3.3 -0.9 -4.9- 72.5- 8.0 5.0---- 0.0-- 8---------
1979-02-08 -4.9 0.3-10.9- 81.8- 7.0 7.3---- 0.0-- 8---------
1979-02-07 -4.7 -1.5 -9.0- 92.8- 7.3 5.0---- 0.0-- 8---------
1979-02-06 -2.9 -0.3 -6.9- 95.0- 8.0 4.7---- 0.0-- 8---------
1979-02-05 -1.3 0.0 -2.6- 94.5- 8.0 4.3---- 0.4-- 7---------
1979-02-04 0.2 2.5 -2.0- 89.0- 7.3 4.3---- 0.9-- 5---------
1979-02-03 1.3 3.8 -1.0- 87.3- 5.7 4.0---- 0.0-- 12---------
1979-02-02 2.0 3.8 -1.3- 82.8- 5.3 3.7---- 0.0-- 16---------
1979-02-01 -1.0 0.3 -3.3- 98.5- 8.0 5.0---- 0.3-- 15---------
1979-01-31 0.5 1.2 -1.3- 91.3- 8.0 3.7---- 2.1-- 15---------
1979-01-30 -1.2 1.4 -3.1- 91.3- 8.0 14.3---- 0.8-- 12---------
1979-01-29 2.4 7.6 0.1- 98.5- 8.0 3.0---- 0.0-- 12---------
1979-01-28 5.6 8.1 1.6- 88.5- 5.7 3.7---- 2.1-- 17---------
1979-01-27 2.4 3.1 -4.0- 94.5- 6.7 3.3---- 0.0-- 24---------
1979-01-26 -1.9 0.0 -3.8- 99.5- 8.0 4.0---- 0.0-- 30---------
1979-01-25 -1.7 0.1 -2.9- 94.3- 8.0 0.7---- 0.4-- 29---------
1979-01-24 -2.0 0.1 -4.9- 96.0- 8.0 2.0---- 0.0-- 29---------
1979-01-23 -4.0 -2.0 -7.5- 92.8- 8.0 2.0---- 1.2-- 26---------
1979-01-22 -8.1 -6.5 -9.5- 94.8- 6.0 5.0---- 0.8-- 23---------
1979-01-21 -5.6 -4.3 -7.5- 93.3- 7.3 3.0---- 0.0-- 23---------
1979-01-20 -5.1 -4.5 -5.8- 93.5- 7.3 4.7---- 0.0-- 23---------
1979-01-19 -5.2 -4.5 -5.9- 93.5- 8.0 5.7---- 0.0-- 23---------
1979-01-18 -4.3 -2.9-11.3- 95.0- 8.0 4.3---- 0.0-- 23---------
1979-01-17 -8.6 -2.7-10.3- 96.0- 7.3 0.7---- 0.0-- 23---------
1979-01-16 -2.6 -1.7 -4.8- 96.5- 8.0 1.3---- 0.0-- 23---------
1979-01-15 -5.0 -4.0 -7.6- 96.0- 8.0 3.3---- 0.7-- 20---------
1979-01-14 -5.3 -4.0 -7.1- 95.0- 8.0 8.3---- 0.0-- 20---------
1979-01-13 -4.8 -1.4 -8.0- 86.8- 6.7 6.3---- 0.6-- 17---------
1979-01-12 -0.5 4.0 -1.3- 92.5- 8.0 3.0---- 1.1-- 17---------
1979-01-11 0.7 3.2 -1.4- 72.8- 6.0 3.3---- 0.7-- 14---------
1979-01-10 0.1 1.1 -1.4- 95.5- 8.0 3.7---- 1.5-- 8---------
1979-01-09 -2.3 1.1 -4.9- 54.8- 5.7 5.0---- 0.0-- 8---------
1979-01-08 -5.0 -3.7 -7.3- 62.3- 6.7 3.7---- 0.0-- 8---------
1979-01-07 -8.3 -7.1-10.0- 90.0- 3.0 2.3---- 0.0-- 12---------
1979-01-06 -8.7 -7.3-12.3- 98.3- 8.0 8.0---- 0.3-- 16---------
1979-01-05-12.4 -6.0-18.2- 95.3- 8.0 11.3---- 1.2-- 13---------
1979-01-04-10.3 -8.9-12.2- 89.3- 6.7 7.3---- 0.4-- 11---------
1979-01-03-10.0 -9.0-11.0- 86.8- 4.7 7.0---- 0.3-- 10---------
1979-01-02-12.3 -9.9-18.4- 90.3- 5.7 6.3---- 0.3-- 9---------
1979-01-01-12.5 -4.0-18.4- 88.0- 8.0 5.0---- 0.4-- 8---------
1978-12-31 -9.9 -4.9-14.6- 99.5- 8.0 6.0---- 3.4-- 16---------
1978-12-30 -6.5 7.5-12.0- 91.5- 6.7 3.3---- 0.3-- 3---------
1978-12-29 6.6 8.1 5.0- 93.8- 5.7 4.7---- 1.1------------
1978-12-28 3.7 5.3 1.8- 94.0- 8.0 2.7---- 1.4------------
1978-12-27 3.2 4.2 1.7- 96.0- 8.0 2.7---- 0.1------------
1978-12-26 2.8 3.8 1.8- 95.0- 8.0 3.0---- 0.3------------
1978-12-25 2.2 5.8 -1.3- 83.8- 8.0 3.0---- 0.7------------
1978-12-24 -1.0 1.7 -4.0- 98.0- 6.3 4.0---- 0.0------------
1978-12-23 -6.9 -4.0-10.2- 77.8- 6.7 3.3---- 0.0------------
1978-12-22 -6.9 -5.4 -7.9- 91.5- 4.3 3.0---- 0.0------------
1978-12-21 -2.8 -1.7 -5.4- 98.5- 7.0 2.3---- 0.0------------
1978-12-20 -5.2 -1.9 -9.3- 86.3- 7.3 3.7---- 0.0------------
1978-12-19 -4.9 -1.6 -7.9- 85.0- 6.7 3.3---- 0.0------------
1978-12-18 -6.6 -2.1 -8.9- 67.3- 7.3 4.7---- 0.0------------
2608.5 ms

 

Źródłem pochodzenia danych jest Instytut Meteorologii i Gospodarki Wodnej – Państwowy Instytut Badawczy. Dane Instytutu Meteorologii i Gospodarki Wodnej – Państwowego Instytutu Badawczego zostały przetworzone.

Dane źródłowe można odnaleźć na stronie https://dane.imgw.pl